Danmarkshavn

KL  EN  DA
ASIAQ
Weather Now GREENLAND SURVEY
Updated [WGT/WGST] Temperature [°C] Wind [m/s] Air pressure [hPa] Relative humidity [%] Precipitation [mm]
Present Wind chill Speed Max
24.09 02:00-6,0-14,18,0 ⇘11,3101047n/a
24.09 01:00-6,1-14,27,9 ⇘11,0101050n/a
24.09 00:00-5,3-9,62,8 ⇘9,5101047n/a
23.09 23:00-5,3-12,36,2 ⇘10,8101048n/a
23.09 22:00-4,6-12,68,8 ⇘10,7101045n/a
23.09 21:00-4,4-11,77,2 ⇘12,4101043n/a
23.09 20:00-5,2-14,010,3 ⇒11,8101050n/a
23.09 19:00-4,3-11,77,5 ⇘12,3101045n/a
23.09 18:00-4,2-12,08,6 ⇘13,4101047n/a
23.09 17:00-3,2-11,611,1 ⇘14,4101043n/a
23.09 16:00-2,9-11,511,8 ⇘14,5101044n/a
23.09 15:00-3,0-11,411,1 ⇘14,6101046n/a
23.09 14:00-3,6-11,810,0 ⇘13,2101150n/a
23.09 13:00-3,6-11,79,7 ⇘12,9101151n/a
23.09 12:00-3,3-10,47,6 ⇘11,3101255n/a
23.09 11:00-2,5-9,27,1 ⇘9,7101359n/a
23.09 10:00-2,7-10,08,4 ⇘11,1101360n/a
23.09 09:00-3,4-11,29,2 ⇘11,7101368n/a
23.09 08:00-3,2-9,25,5 ⇒11,2101477n/a
23.09 07:00-2,9-9,46,5 ⇒11,9101472n/a
23.09 06:00-2,2-9,17,9 ⇒10,6101366n/a
23.09 05:00-2,5-8,86,4 ⇒12,8101367n/a
23.09 04:00-2,7-8,75,7 ⇒9,4101370n/a
23.09 03:00-3,0-9,15,7 ⇒13,7101372n/a
23.09 02:00-3,0-10,79,2 ⇒12,0101273n/a
Position: (76.76944444444,-18.66805555)

[Back]